Terminal Aerodrome Forecast
Issued by NWS Binghamton, NY

Home | Current Version | Previous Version | Text Only | Print | Product List | Glossary On
Versions: 1 2 3 4 5 6 7 8 9 10 11 12 13 14 15 16 17 18 19
131
FTUS41 KBGM 180701 AAB
TAFBGM
TAF AMD
KBGM 180701Z 1807/1906 19006KT 2SM -DZ BR OVC002
      TEMPO 1807/1810 1/2SM FG
     FM181200 24004KT 3SM -DZ BR OVC003
     FM181700 30006KT 5SM -DZ BR OVC008
     FM190000 31005KT P6SM OVC008=

USA.gov is the U.S. government's official web portal to all federal, state and local government web resources and services.